LOT496 ESGG-EPWA
Flight info
| Callsign | LOT496 |
|---|---|
| Flight time | 1h 16m |
| Altitude | 37000 |
| Route | LUKAX DCT LARMA DCT NASOK DCT SORIX |
| Aircraft | B738/M-SDE2E3FGHIRWXY/LB1 |
Departure
| Time | 2026-05-06 14:32 |
|---|---|
| Airport | Göteborg Landvetter Airport (ESGG) |
Arrival
| Time | 2026-05-06 15:48 |
|---|---|
| Airport | Warsaw Chopin Airport (EPWA) |
| Time | Latitude | Longitude | Altitude | Speed | Heading |
|---|---|---|---|---|---|
| 2026-05-06 14:09 | 57.66222 | 12.28863 | 515 ft | 0 kts | 116° |
| 2026-05-06 14:23 | 57.66223 | 12.28860 | 515 ft | 2 kts | 116° |
| 2026-05-06 14:23 | 57.66233 | 12.28816 | 515 ft | 4 kts | 104° |
| 2026-05-06 14:24 | 57.66236 | 12.28767 | 515 ft | 4 kts | 81° |
| 2026-05-06 14:24 | 57.66226 | 12.28727 | 515 ft | 3 kts | 30° |
| 2026-05-06 14:24 | 57.66223 | 12.28723 | 515 ft | 1 kts | 25° |
| 2026-05-06 14:26 | 57.66229 | 12.28729 | 515 ft | 3 kts | 25° |
| 2026-05-06 14:27 | 57.66275 | 12.28770 | 515 ft | 11 kts | 25° |
| 2026-05-06 14:27 | 57.66365 | 12.28853 | 515 ft | 17 kts | 26° |
| 2026-05-06 14:27 | 57.66469 | 12.28948 | 515 ft | 11 kts | 26° |
| 2026-05-06 14:27 | 57.66537 | 12.28953 | 515 ft | 10 kts | 351° |
| 2026-05-06 14:28 | 57.66606 | 12.28950 | 515 ft | 11 kts | 321° |
| 2026-05-06 14:28 | 57.66661 | 12.28855 | 515 ft | 11 kts | 350° |
| 2026-05-06 14:28 | 57.66743 | 12.28910 | 515 ft | 15 kts | 26° |
| 2026-05-06 14:28 | 57.66847 | 12.29004 | 515 ft | 18 kts | 26° |
| 2026-05-06 14:29 | 57.66961 | 12.29113 | 515 ft | 18 kts | 27° |
| 2026-05-06 14:29 | 57.67073 | 12.29214 | 515 ft | 18 kts | 25° |
| 2026-05-06 14:29 | 57.67181 | 12.29311 | 515 ft | 17 kts | 26° |
| 2026-05-06 14:29 | 57.67286 | 12.29405 | 515 ft | 16 kts | 25° |
| 2026-05-06 14:30 | 57.67379 | 12.29485 | 515 ft | 11 kts | 10° |
| 2026-05-06 14:30 | 57.67431 | 12.29401 | 515 ft | 11 kts | 298° |
| 2026-05-06 14:30 | 57.67460 | 12.29275 | 514 ft | 10 kts | 276° |
| 2026-05-06 14:30 | 57.67453 | 12.29131 | 513 ft | 12 kts | 252° |
| 2026-05-06 14:31 | 57.67402 | 12.29000 | 514 ft | 14 kts | 215° |
| 2026-05-06 14:31 | 57.67221 | 12.28833 | 513 ft | 60 kts | 206° |
| 2026-05-06 14:31 | 57.66633 | 12.28298 | 511 ft | 126 kts | 206° |
| 2026-05-06 14:31 | 57.65676 | 12.27437 | 595 ft | 171 kts | 208° |
| 2026-05-06 14:32 | 57.64590 | 12.26462 | 1312 ft | 176 kts | 208° |
| 2026-05-06 14:32 | 57.63463 | 12.25449 | 2052 ft | 187 kts | 209° |
| 2026-05-06 14:32 | 57.62199 | 12.24317 | 2312 ft | 215 kts | 207° |
| 2026-05-06 14:32 | 57.60722 | 12.23288 | 2581 ft | 238 kts | 191° |
| 2026-05-06 14:33 | 57.58995 | 12.23045 | 2988 ft | 256 kts | 182° |
| 2026-05-06 14:33 | 57.57206 | 12.22862 | 3829 ft | 255 kts | 184° |
| 2026-05-06 14:33 | 57.55477 | 12.22638 | 4820 ft | 252 kts | 180° |
| 2026-05-06 14:33 | 57.53711 | 12.22907 | 5536 ft | 259 kts | 171° |
| 2026-05-06 14:34 | 57.51926 | 12.23435 | 6365 ft | 261 kts | 171° |
| 2026-05-06 14:34 | 57.50128 | 12.23978 | 7159 ft | 261 kts | 171° |
| 2026-05-06 14:34 | 57.48336 | 12.24501 | 7927 ft | 265 kts | 171° |
| 2026-05-06 14:34 | 57.46482 | 12.25028 | 8604 ft | 271 kts | 172° |
| 2026-05-06 14:35 | 57.44610 | 12.25551 | 9373 ft | 274 kts | 172° |
| 2026-05-06 14:35 | 57.42701 | 12.26077 | 10033 ft | 280 kts | 172° |
| 2026-05-06 14:35 | 57.40707 | 12.26620 | 10321 ft | 300 kts | 173° |
| 2026-05-06 14:35 | 57.38564 | 12.27197 | 10490 ft | 322 kts | 173° |
| 2026-05-06 14:36 | 57.36313 | 12.27804 | 10790 ft | 338 kts | 173° |
| 2026-05-06 14:36 | 57.33957 | 12.28440 | 11332 ft | 345 kts | 173° |
| 2026-05-06 14:36 | 57.31584 | 12.29079 | 12080 ft | 347 kts | 174° |
| 2026-05-06 14:36 | 57.29178 | 12.29724 | 12781 ft | 351 kts | 173° |
| 2026-05-06 14:37 | 57.26743 | 12.30377 | 13446 ft | 356 kts | 174° |
| 2026-05-06 14:37 | 57.24268 | 12.31040 | 14129 ft | 360 kts | 174° |
| 2026-05-06 14:37 | 57.21780 | 12.31706 | 14832 ft | 362 kts | 174° |
| 2026-05-06 14:37 | 57.19277 | 12.32373 | 15542 ft | 365 kts | 175° |
| 2026-05-06 14:38 | 57.16754 | 12.33045 | 16241 ft | 368 kts | 175° |
| 2026-05-06 14:38 | 57.14268 | 12.34331 | 16892 ft | 380 kts | 156° |
| 2026-05-06 14:38 | 57.12790 | 12.36117 | 17338 ft | 388 kts | 143° |
| 2026-05-06 14:38 | 57.10976 | 12.39866 | 17996 ft | 397 kts | 131° |
| 2026-05-06 14:39 | 57.08734 | 12.45333 | 18708 ft | 404 kts | 130° |
| 2026-05-06 14:39 | 57.07619 | 12.48092 | 19064 ft | 407 kts | 130° |
| 2026-05-06 14:39 | 57.05925 | 12.52284 | 19602 ft | 410 kts | 130° |
| 2026-05-06 14:39 | 57.04212 | 12.56506 | 20173 ft | 413 kts | 131° |
| 2026-05-06 14:40 | 57.02482 | 12.60737 | 20707 ft | 416 kts | 131° |
| 2026-05-06 14:40 | 57.00730 | 12.64992 | 21212 ft | 419 kts | 131° |
| 2026-05-06 14:40 | 56.98959 | 12.69270 | 21753 ft | 422 kts | 132° |
| 2026-05-06 14:40 | 56.97175 | 12.73564 | 22271 ft | 425 kts | 132° |
| 2026-05-06 14:41 | 56.95366 | 12.77905 | 22747 ft | 429 kts | 132° |
| 2026-05-06 14:41 | 56.93568 | 12.82208 | 23224 ft | 433 kts | 132° |
| 2026-05-06 14:41 | 56.91732 | 12.86594 | 23678 ft | 436 kts | 133° |
| 2026-05-06 14:41 | 56.89879 | 12.91015 | 24131 ft | 438 kts | 133° |
| 2026-05-06 14:42 | 56.88020 | 12.95444 | 24601 ft | 439 kts | 133° |
| 2026-05-06 14:42 | 56.86156 | 12.99875 | 25045 ft | 440 kts | 133° |
| 2026-05-06 14:42 | 56.84284 | 13.04317 | 25444 ft | 443 kts | 133° |
| 2026-05-06 14:42 | 56.82399 | 13.08781 | 25853 ft | 445 kts | 133° |
| 2026-05-06 14:43 | 56.80501 | 13.13266 | 26272 ft | 446 kts | 133° |
| 2026-05-06 14:43 | 56.78603 | 13.17746 | 26703 ft | 447 kts | 133° |
| 2026-05-06 14:43 | 56.76701 | 13.22225 | 27104 ft | 448 kts | 133° |
| 2026-05-06 14:43 | 56.74787 | 13.26724 | 27493 ft | 450 kts | 133° |
| 2026-05-06 14:44 | 56.72865 | 13.31232 | 27878 ft | 451 kts | 133° |
| 2026-05-06 14:44 | 56.70935 | 13.35752 | 28254 ft | 453 kts | 133° |
| 2026-05-06 14:44 | 56.68997 | 13.40282 | 28625 ft | 454 kts | 134° |
| 2026-05-06 14:45 | 56.65094 | 13.49378 | 29300 ft | 457 kts | 133° |
| 2026-05-06 14:45 | 56.63146 | 13.53907 | 29764 ft | 455 kts | 133° |
| 2026-05-06 14:45 | 56.61197 | 13.58432 | 30139 ft | 455 kts | 133° |
| 2026-05-06 14:45 | 56.59250 | 13.62941 | 30439 ft | 454 kts | 133° |
| 2026-05-06 14:46 | 56.57299 | 13.67452 | 30811 ft | 453 kts | 133° |
| 2026-05-06 14:46 | 56.55380 | 13.71881 | 31204 ft | 451 kts | 133° |
| 2026-05-06 14:46 | 56.53443 | 13.76344 | 31597 ft | 449 kts | 133° |
| 2026-05-06 14:46 | 56.51512 | 13.80782 | 31959 ft | 448 kts | 133° |
| 2026-05-06 14:47 | 56.49581 | 13.85213 | 32302 ft | 447 kts | 133° |
| 2026-05-06 14:47 | 56.47653 | 13.89627 | 32645 ft | 446 kts | 133° |
| 2026-05-06 14:47 | 56.45732 | 13.94019 | 33004 ft | 445 kts | 133° |
| 2026-05-06 14:47 | 56.43809 | 13.98406 | 33367 ft | 442 kts | 133° |
| 2026-05-06 14:48 | 56.41907 | 14.02738 | 33923 ft | 436 kts | 133° |
| 2026-05-06 14:48 | 56.40032 | 14.07006 | 34270 ft | 434 kts | 133° |
| 2026-05-06 14:48 | 56.38141 | 14.11293 | 34373 ft | 438 kts | 133° |
| 2026-05-06 14:49 | 56.34345 | 14.19875 | 34683 ft | 441 kts | 133° |
| 2026-05-06 14:49 | 56.32402 | 14.24260 | 34927 ft | 441 kts | 133° |
| 2026-05-06 14:49 | 56.30509 | 14.28526 | 35088 ft | 443 kts | 133° |
| 2026-05-06 14:49 | 56.28579 | 14.32865 | 35257 ft | 444 kts | 133° |
| 2026-05-06 14:50 | 56.26648 | 14.37200 | 35426 ft | 445 kts | 133° |
| 2026-05-06 14:50 | 56.24705 | 14.41554 | 35603 ft | 446 kts | 133° |
| 2026-05-06 14:50 | 56.22760 | 14.45906 | 35744 ft | 448 kts | 133° |
| 2026-05-06 14:50 | 56.20799 | 14.50285 | 35894 ft | 449 kts | 133° |
| 2026-05-06 14:51 | 56.18838 | 14.54655 | 36069 ft | 450 kts | 133° |
| 2026-05-06 14:51 | 56.16876 | 14.59024 | 36283 ft | 450 kts | 133° |
| 2026-05-06 14:51 | 56.14909 | 14.63393 | 36446 ft | 451 kts | 133° |
| 2026-05-06 14:51 | 56.12931 | 14.67777 | 36600 ft | 452 kts | 133° |
| 2026-05-06 14:52 | 56.10947 | 14.72168 | 36774 ft | 453 kts | 133° |
| 2026-05-06 14:52 | 56.08963 | 14.76552 | 36926 ft | 454 kts | 133° |
| 2026-05-06 14:52 | 56.06970 | 14.80944 | 36929 ft | 457 kts | 133° |
| 2026-05-06 14:53 | 56.02964 | 14.89755 | 36937 ft | 455 kts | 133° |
| 2026-05-06 14:53 | 55.99011 | 14.98421 | 36934 ft | 451 kts | 133° |
| 2026-05-06 14:54 | 55.95048 | 15.07077 | 36934 ft | 449 kts | 133° |
| 2026-05-06 14:54 | 55.91098 | 15.15668 | 36938 ft | 448 kts | 133° |
| 2026-05-06 14:55 | 55.87140 | 15.24244 | 36939 ft | 448 kts | 133° |
| 2026-05-06 14:55 | 55.83170 | 15.32818 | 36944 ft | 449 kts | 133° |
| 2026-05-06 14:56 | 55.79172 | 15.41423 | 36932 ft | 451 kts | 134° |
| 2026-05-06 14:56 | 55.75154 | 15.50040 | 36945 ft | 454 kts | 134° |
| 2026-05-06 14:57 | 55.71107 | 15.58689 | 36945 ft | 456 kts | 134° |
| 2026-05-06 14:57 | 55.67035 | 15.67360 | 36935 ft | 458 kts | 134° |
| 2026-05-06 14:58 | 55.62972 | 15.75983 | 36941 ft | 460 kts | 134° |
| 2026-05-06 14:58 | 55.58867 | 15.84662 | 36914 ft | 460 kts | 134° |
| 2026-05-06 14:59 | 55.54756 | 15.93327 | 36924 ft | 458 kts | 134° |
| 2026-05-06 14:59 | 55.50658 | 16.01931 | 36918 ft | 457 kts | 134° |
| 2026-05-06 15:00 | 55.46565 | 16.10495 | 36925 ft | 455 kts | 134° |
| 2026-05-06 15:00 | 55.42484 | 16.19002 | 36917 ft | 454 kts | 134° |
| 2026-05-06 15:01 | 55.38410 | 16.27466 | 36920 ft | 453 kts | 134° |
| 2026-05-06 15:01 | 55.34336 | 16.35901 | 36910 ft | 452 kts | 134° |
| 2026-05-06 15:02 | 55.30288 | 16.44256 | 36907 ft | 452 kts | 135° |
| 2026-05-06 15:02 | 55.25966 | 16.52160 | 36895 ft | 444 kts | 147° |
| 2026-05-06 15:03 | 55.20914 | 16.58328 | 36905 ft | 442 kts | 150° |
| 2026-05-06 15:03 | 55.15824 | 16.64385 | 36887 ft | 443 kts | 150° |
| 2026-05-06 15:04 | 55.10735 | 16.70494 | 36883 ft | 444 kts | 150° |
| 2026-05-06 15:04 | 55.05642 | 16.76642 | 36895 ft | 445 kts | 150° |
| 2026-05-06 15:05 | 55.00548 | 16.82790 | 36893 ft | 446 kts | 150° |
| 2026-05-06 15:05 | 54.95431 | 16.88947 | 36888 ft | 447 kts | 150° |
| 2026-05-06 15:06 | 54.90304 | 16.95095 | 36882 ft | 448 kts | 150° |
| 2026-05-06 15:06 | 54.85189 | 17.01209 | 36873 ft | 449 kts | 150° |
| 2026-05-06 15:07 | 54.80040 | 17.07344 | 36855 ft | 448 kts | 150° |
| 2026-05-06 15:07 | 54.74898 | 17.13452 | 36855 ft | 448 kts | 150° |
| 2026-05-06 15:08 | 54.69751 | 17.19546 | 36856 ft | 448 kts | 150° |
| 2026-05-06 15:08 | 54.64594 | 17.25632 | 36851 ft | 448 kts | 150° |
| 2026-05-06 15:09 | 54.59477 | 17.31652 | 36853 ft | 448 kts | 150° |
| 2026-05-06 15:09 | 54.54324 | 17.37696 | 36845 ft | 448 kts | 150° |
| 2026-05-06 15:10 | 54.49169 | 17.43725 | 36823 ft | 447 kts | 151° |
| 2026-05-06 15:10 | 54.44023 | 17.49724 | 36830 ft | 447 kts | 151° |
| 2026-05-06 15:11 | 54.38874 | 17.55707 | 36815 ft | 446 kts | 151° |
| 2026-05-06 15:11 | 54.33727 | 17.61669 | 36814 ft | 446 kts | 151° |
| 2026-05-06 15:12 | 54.28583 | 17.67610 | 36815 ft | 446 kts | 151° |
| 2026-05-06 15:12 | 54.23435 | 17.73537 | 36799 ft | 446 kts | 152° |
| 2026-05-06 15:13 | 54.18278 | 17.79457 | 36794 ft | 446 kts | 152° |
| 2026-05-06 15:13 | 54.13124 | 17.85355 | 36784 ft | 446 kts | 152° |
| 2026-05-06 15:14 | 54.07972 | 17.91233 | 36795 ft | 445 kts | 152° |
| 2026-05-06 15:14 | 54.02818 | 17.97095 | 36793 ft | 445 kts | 152° |
| 2026-05-06 15:15 | 53.97658 | 18.02947 | 36780 ft | 445 kts | 152° |
| 2026-05-06 15:15 | 53.92500 | 18.08779 | 36782 ft | 445 kts | 152° |
| 2026-05-06 15:16 | 53.87380 | 18.14551 | 36747 ft | 444 kts | 152° |
| 2026-05-06 15:16 | 53.82236 | 18.20332 | 36753 ft | 443 kts | 152° |
| 2026-05-06 15:17 | 53.77095 | 18.26092 | 36766 ft | 443 kts | 152° |
| 2026-05-06 15:17 | 53.71965 | 18.31824 | 36762 ft | 442 kts | 152° |
| 2026-05-06 15:18 | 53.66831 | 18.37541 | 36755 ft | 441 kts | 152° |
| 2026-05-06 15:18 | 53.61713 | 18.43226 | 36751 ft | 440 kts | 152° |
| 2026-05-06 15:19 | 53.56598 | 18.48889 | 36718 ft | 440 kts | 153° |
| 2026-05-06 15:19 | 53.51520 | 18.54496 | 36742 ft | 439 kts | 153° |
| 2026-05-06 15:20 | 53.46411 | 18.60119 | 36749 ft | 439 kts | 153° |
| 2026-05-06 15:20 | 53.43843 | 18.62938 | 36474 ft | 445 kts | 153° |
| 2026-05-06 15:20 | 53.41244 | 18.65785 | 35991 ft | 445 kts | 153° |
| 2026-05-06 15:20 | 53.38654 | 18.68623 | 35390 ft | 444 kts | 153° |
| 2026-05-06 15:21 | 53.36066 | 18.71456 | 34779 ft | 444 kts | 153° |
| 2026-05-06 15:21 | 53.33478 | 18.74283 | 34188 ft | 444 kts | 154° |
| 2026-05-06 15:21 | 53.30906 | 18.77092 | 33777 ft | 439 kts | 154° |
| 2026-05-06 15:21 | 53.28354 | 18.79874 | 33226 ft | 435 kts | 155° |
| 2026-05-06 15:22 | 53.25830 | 18.82620 | 32770 ft | 431 kts | 155° |
| 2026-05-06 15:22 | 53.23330 | 18.85336 | 32329 ft | 426 kts | 155° |
| 2026-05-06 15:22 | 53.20894 | 18.87977 | 31911 ft | 421 kts | 155° |
| 2026-05-06 15:22 | 53.18447 | 18.90626 | 31485 ft | 417 kts | 155° |
| 2026-05-06 15:23 | 53.16020 | 18.93249 | 31081 ft | 414 kts | 155° |
| 2026-05-06 15:23 | 53.13612 | 18.95848 | 30653 ft | 411 kts | 155° |
| 2026-05-06 15:23 | 53.11224 | 18.98426 | 30246 ft | 408 kts | 154° |
| 2026-05-06 15:23 | 53.08974 | 19.01331 | 29829 ft | 413 kts | 145° |
| 2026-05-06 15:24 | 53.07012 | 19.04872 | 29373 ft | 418 kts | 137° |
| 2026-05-06 15:24 | 53.05212 | 19.08634 | 28934 ft | 414 kts | 136° |
| 2026-05-06 15:24 | 53.03440 | 19.12393 | 28525 ft | 410 kts | 136° |
| 2026-05-06 15:24 | 53.01688 | 19.16100 | 28094 ft | 405 kts | 136° |
| 2026-05-06 15:25 | 52.99954 | 19.19742 | 27691 ft | 401 kts | 136° |
| 2026-05-06 15:25 | 52.98219 | 19.23357 | 27275 ft | 398 kts | 136° |
| 2026-05-06 15:25 | 52.96496 | 19.26928 | 26873 ft | 396 kts | 136° |
| 2026-05-06 15:25 | 52.94764 | 19.30493 | 26455 ft | 399 kts | 136° |
| 2026-05-06 15:26 | 52.93019 | 19.34080 | 26055 ft | 399 kts | 136° |
| 2026-05-06 15:26 | 52.91285 | 19.37644 | 25642 ft | 395 kts | 136° |
| 2026-05-06 15:26 | 52.89567 | 19.41173 | 25224 ft | 392 kts | 135° |
| 2026-05-06 15:26 | 52.87858 | 19.44676 | 24839 ft | 389 kts | 135° |
| 2026-05-06 15:27 | 52.86164 | 19.48143 | 24438 ft | 386 kts | 135° |
| 2026-05-06 15:27 | 52.84482 | 19.51581 | 24032 ft | 384 kts | 135° |
| 2026-05-06 15:27 | 52.83370 | 19.53851 | 23767 ft | 382 kts | 135° |
| 2026-05-06 15:27 | 52.81163 | 19.58350 | 23255 ft | 379 kts | 135° |
| 2026-05-06 15:28 | 52.79507 | 19.61720 | 22805 ft | 377 kts | 135° |
| 2026-05-06 15:28 | 52.77859 | 19.65071 | 22394 ft | 374 kts | 135° |
| 2026-05-06 15:28 | 52.76222 | 19.68396 | 22004 ft | 370 kts | 135° |
| 2026-05-06 15:28 | 52.75151 | 19.70568 | 21737 ft | 368 kts | 135° |
| 2026-05-06 15:29 | 52.73541 | 19.73833 | 21343 ft | 366 kts | 135° |
| 2026-05-06 15:29 | 52.71932 | 19.77088 | 20961 ft | 366 kts | 135° |
| 2026-05-06 15:29 | 52.70321 | 19.80340 | 20579 ft | 365 kts | 135° |
| 2026-05-06 15:29 | 52.68777 | 19.83671 | 20192 ft | 368 kts | 129° |
| 2026-05-06 15:30 | 52.67450 | 19.87293 | 19825 ft | 369 kts | 125° |
| 2026-05-06 15:30 | 52.66213 | 19.90991 | 19446 ft | 368 kts | 124° |
| 2026-05-06 15:30 | 52.64995 | 19.94687 | 19059 ft | 366 kts | 124° |
| 2026-05-06 15:30 | 52.63772 | 19.98348 | 18686 ft | 364 kts | 124° |
| 2026-05-06 15:31 | 52.62538 | 20.01982 | 18310 ft | 362 kts | 125° |
| 2026-05-06 15:31 | 52.61301 | 20.05576 | 17922 ft | 360 kts | 125° |
| 2026-05-06 15:31 | 52.60060 | 20.09149 | 17495 ft | 358 kts | 125° |
| 2026-05-06 15:32 | 52.57591 | 20.16213 | 16714 ft | 354 kts | 125° |
| 2026-05-06 15:32 | 52.56369 | 20.19700 | 16339 ft | 351 kts | 125° |
| 2026-05-06 15:32 | 52.55152 | 20.23165 | 15965 ft | 348 kts | 125° |
| 2026-05-06 15:32 | 52.53947 | 20.26597 | 15667 ft | 344 kts | 125° |
| 2026-05-06 15:33 | 52.52770 | 20.29945 | 15539 ft | 334 kts | 125° |
| 2026-05-06 15:33 | 52.51619 | 20.33213 | 15390 ft | 326 kts | 126° |
| 2026-05-06 15:33 | 52.50495 | 20.36413 | 15081 ft | 323 kts | 125° |
| 2026-05-06 15:33 | 52.49400 | 20.39559 | 14801 ft | 321 kts | 125° |
| 2026-05-06 15:34 | 52.48297 | 20.42731 | 14494 ft | 318 kts | 125° |
| 2026-05-06 15:34 | 52.47205 | 20.45870 | 14190 ft | 316 kts | 125° |
| 2026-05-06 15:34 | 52.46116 | 20.48995 | 13883 ft | 315 kts | 125° |
| 2026-05-06 15:34 | 52.45031 | 20.52106 | 13578 ft | 314 kts | 125° |
| 2026-05-06 15:35 | 52.43946 | 20.55209 | 13224 ft | 313 kts | 125° |
| 2026-05-06 15:35 | 52.42867 | 20.58295 | 12893 ft | 311 kts | 125° |
| 2026-05-06 15:35 | 52.41793 | 20.61364 | 12569 ft | 310 kts | 125° |
| 2026-05-06 15:35 | 52.40722 | 20.64417 | 12270 ft | 308 kts | 125° |
| 2026-05-06 15:36 | 52.39654 | 20.67455 | 11905 ft | 308 kts | 125° |
| 2026-05-06 15:36 | 52.38583 | 20.70497 | 11535 ft | 309 kts | 125° |
| 2026-05-06 15:36 | 52.37512 | 20.73535 | 11194 ft | 308 kts | 125° |
| 2026-05-06 15:36 | 52.36445 | 20.76560 | 10856 ft | 307 kts | 125° |
| 2026-05-06 15:37 | 52.35376 | 20.79587 | 10519 ft | 307 kts | 125° |
| 2026-05-06 15:37 | 52.34309 | 20.82603 | 10181 ft | 306 kts | 125° |
| 2026-05-06 15:37 | 52.33245 | 20.85610 | 9839 ft | 306 kts | 125° |
| 2026-05-06 15:37 | 52.32176 | 20.88629 | 9493 ft | 306 kts | 125° |
| 2026-05-06 15:38 | 52.31116 | 20.91618 | 9179 ft | 304 kts | 125° |
| 2026-05-06 15:38 | 52.30059 | 20.94598 | 8889 ft | 301 kts | 125° |
| 2026-05-06 15:38 | 52.29010 | 20.97549 | 8592 ft | 299 kts | 125° |
| 2026-05-06 15:38 | 52.27966 | 21.00478 | 8279 ft | 298 kts | 124° |
| 2026-05-06 15:39 | 52.26722 | 21.03115 | 7938 ft | 289 kts | 144° |
| 2026-05-06 15:39 | 52.25125 | 21.05027 | 7701 ft | 282 kts | 152° |
| 2026-05-06 15:39 | 52.23456 | 21.06584 | 7412 ft | 278 kts | 158° |
| 2026-05-06 15:39 | 52.21734 | 21.08006 | 7095 ft | 277 kts | 158° |
| 2026-05-06 15:40 | 52.20020 | 21.09418 | 6809 ft | 275 kts | 158° |
| 2026-05-06 15:40 | 52.18312 | 21.10823 | 6516 ft | 274 kts | 158° |
| 2026-05-06 15:40 | 52.16611 | 21.12209 | 6247 ft | 272 kts | 158° |
| 2026-05-06 15:40 | 52.14919 | 21.13577 | 5916 ft | 272 kts | 158° |
| 2026-05-06 15:41 | 52.13218 | 21.14958 | 5586 ft | 272 kts | 158° |
| 2026-05-06 15:41 | 52.11534 | 21.16319 | 5312 ft | 269 kts | 158° |
| 2026-05-06 15:41 | 52.09855 | 21.17666 | 5003 ft | 269 kts | 158° |
| 2026-05-06 15:41 | 52.08176 | 21.18997 | 4710 ft | 268 kts | 158° |
| 2026-05-06 15:42 | 52.06517 | 21.20302 | 4573 ft | 260 kts | 158° |
| 2026-05-06 15:42 | 52.04930 | 21.21542 | 4535 ft | 245 kts | 158° |
| 2026-05-06 15:42 | 52.03396 | 21.22459 | 4422 ft | 226 kts | 177° |
| 2026-05-06 15:42 | 52.01925 | 21.22071 | 4189 ft | 210 kts | 210° |
| 2026-05-06 15:43 | 52.00917 | 21.20498 | 3962 ft | 199 kts | 237° |
| 2026-05-06 15:43 | 52.00532 | 21.18413 | 3701 ft | 194 kts | 271° |
| 2026-05-06 15:43 | 52.00936 | 21.16374 | 3502 ft | 188 kts | 292° |
| 2026-05-06 15:43 | 52.01518 | 21.14531 | 3278 ft | 183 kts | 294° |
| 2026-05-06 15:44 | 52.02100 | 21.12731 | 3101 ft | 177 kts | 294° |
| 2026-05-06 15:44 | 52.02663 | 21.10996 | 2906 ft | 172 kts | 294° |
| 2026-05-06 15:44 | 52.03227 | 21.09275 | 2734 ft | 173 kts | 294° |
| 2026-05-06 15:44 | 52.03982 | 21.07733 | 2556 ft | 182 kts | 326° |
| 2026-05-06 15:45 | 52.05136 | 21.06823 | 2565 ft | 185 kts | 328° |
| 2026-05-06 15:45 | 52.06269 | 21.05777 | 2404 ft | 188 kts | 326° |
| 2026-05-06 15:45 | 52.07413 | 21.04750 | 2204 ft | 186 kts | 326° |
| 2026-05-06 15:45 | 52.08525 | 21.03781 | 1970 ft | 174 kts | 326° |
| 2026-05-06 15:46 | 52.09544 | 21.02887 | 1732 ft | 162 kts | 325° |
| 2026-05-06 15:46 | 52.10514 | 21.02027 | 1488 ft | 156 kts | 325° |
| 2026-05-06 15:46 | 52.11457 | 21.01197 | 1273 ft | 153 kts | 326° |
| 2026-05-06 15:46 | 52.12386 | 21.00384 | 1090 ft | 150 kts | 326° |
| 2026-05-06 15:47 | 52.13309 | 20.99578 | 896 ft | 150 kts | 326° |
| 2026-05-06 15:47 | 52.14222 | 20.98771 | 677 ft | 148 kts | 327° |
| 2026-05-06 15:47 | 52.15110 | 20.97996 | 476 ft | 144 kts | 328° |
| 2026-05-06 15:47 | 52.15972 | 20.97241 | 341 ft | 137 kts | 327° |
| 2026-05-06 15:48 | 52.16705 | 20.96596 | 335 ft | 99 kts | 332° |
| 2026-05-06 15:48 | 52.17178 | 20.96181 | 335 ft | 50 kts | 331° |
| 2026-05-06 15:48 | 52.17387 | 20.96068 | 338 ft | 27 kts | 354° |
| 2026-05-06 15:48 | 52.17555 | 20.96074 | 338 ft | 17 kts | 20° |
| 2026-05-06 15:49 | 52.17584 | 20.96173 | 336 ft | 10 kts | 91° |
| 2026-05-06 15:49 | 52.17546 | 20.96263 | 338 ft | 10 kts | 147° |
| 2026-05-06 15:49 | 52.17480 | 20.96318 | 338 ft | 12 kts | 149° |
| 2026-05-06 15:49 | 52.17446 | 20.96428 | 338 ft | 12 kts | 80° |
| 2026-05-06 15:50 | 52.17485 | 20.96541 | 336 ft | 11 kts | 49° |
| 2026-05-06 15:50 | 52.17533 | 20.96640 | 338 ft | 11 kts | 58° |
| 2026-05-06 15:50 | 52.17573 | 20.96746 | 336 ft | 11 kts | 59° |
| 2026-05-06 15:50 | 52.17611 | 20.96849 | 336 ft | 10 kts | 57° |
| 2026-05-06 15:51 | 52.17605 | 20.96956 | 335 ft | 11 kts | 135° |
| 2026-05-06 15:51 | 52.17540 | 20.97024 | 338 ft | 11 kts | 149° |
| 2026-05-06 15:51 | 52.17501 | 20.97020 | 338 ft | 7 kts | 235° |
| 2026-05-06 15:51 | 52.17483 | 20.96965 | 336 ft | 2 kts | 242° |
| 2026-05-06 15:52 | 52.17480 | 20.96956 | 335 ft | 0 kts | 242° |